Time;durP1;ratioP1;P1;durP2;ratioP2;P2;SDS_P1;SDS_P2;PMS_P1;PMS_P2;Temp;Humidity;BMP_temperature;BMP_pressure;BME280_temperature;BME280_humidity;BME280_pressure;Samples;Min_cycle;Max_cycle;Signal;HPM_P1;HPM_P2
2022/07/14 00:00:35;;;;;;;0.50;0.50;;;17.70;99.90;;;;;;5062680;28;20809;-91
2022/07/14 00:03:02;;;;;;;0.60;0.47;;;17.60;99.90;;;;;;5061433;28;20460;-90
2022/07/14 00:05:31;;;;;;;0.90;0.50;;;17.80;99.90;;;;;;5052847;28;20474;-92
2022/07/14 00:07:58;;;;;;;2.03;0.60;;;17.70;99.90;;;;;;5062584;28;20571;-90
2022/07/14 00:10:25;;;;;;;0.40;0.30;;;17.60;99.90;;;;;;5062533;28;20487;-90
2022/07/14 00:12:53;;;;;;;0.50;0.40;;;17.50;99.90;;;;;;5061845;28;20464;-92
2022/07/14 00:15:20;;;;;;;0.60;0.50;;;17.40;99.90;;;;;;5062787;28;20521;-92
2022/07/14 00:17:47;;;;;;;2.40;0.50;;;17.40;99.90;;;;;;5059695;28;20476;-92
2022/07/14 00:20:14;;;;;;;0.50;0.50;;;17.30;99.90;;;;;;5055776;28;20449;-91
2022/07/14 00:22:42;;;;;;;0.47;0.40;;;17.20;99.90;;;;;;5061421;28;20522;-92
2022/07/14 00:25:10;;;;;;;0.50;0.40;;;17.20;99.90;;;;;;5056207;28;20950;-91
2022/07/14 00:27:37;;;;;;;0.50;0.50;;;17.20;99.90;;;;;;5061347;28;20467;-91
2022/07/14 00:30:05;;;;;;;0.40;0.30;;;17.20;99.90;;;;;;5062778;28;20475;-94
2022/07/14 00:32:35;;;;;;;0.60;0.40;;;17.20;99.90;;;;;;5060329;28;20459;-93
2022/07/14 00:35:02;;;;;;;0.60;0.60;;;17.20;99.90;;;;;;5058118;28;20981;-92
2022/07/14 00:37:29;;;;;;;0.50;0.40;;;17.20;99.90;;;;;;5060276;28;20525;-89
2022/07/14 00:40:00;;;;;;;0.50;0.47;;;17.20;99.90;;;;;;5059309;28;20467;-91
2022/07/14 00:42:33;;;;;;;0.50;0.40;;;17.20;99.90;;;;;;5062495;28;20501;-91
2022/07/14 00:45:02;;;;;;;0.90;0.40;;;17.00;99.90;;;;;;5058303;28;20957;-92
2022/07/14 00:47:29;;;;;;;0.90;0.50;;;16.80;99.90;;;;;;5062778;28;20459;-91
2022/07/14 00:49:56;;;;;;;0.50;0.40;;;16.70;99.90;;;;;;5058307;28;20884;-92
2022/07/14 00:52:24;;;;;;;0.50;0.50;;;16.70;99.90;;;;;;5061565;28;20463;-90
2022/07/14 00:54:52;;;;;;;0.50;0.50;;;16.60;99.90;;;;;;5061704;28;20454;-90
2022/07/14 00:57:21;;;;;;;2.20;0.50;;;16.60;99.90;;;;;;5062286;28;20469;-91
2022/07/14 00:59:48;;;;;;;0.53;0.40;;;16.60;99.90;;;;;;5059268;28;20528;-91
2022/07/14 01:02:15;;;;;;;2.47;0.50;;;16.50;99.90;;;;;;5055316;28;20526;-90
2022/07/14 01:04:44;;;;;;;0.50;0.50;;;16.50;99.90;;;;;;5059398;28;20464;-90
2022/07/14 01:07:12;;;;;;;0.83;0.50;;;16.50;99.90;;;;;;5057407;28;20969;-91
2022/07/14 01:09:39;;;;;;;0.80;0.50;;;16.60;99.90;;;;;;5055311;28;20477;-91
2022/07/14 01:12:07;;;;;;;0.70;0.50;;;16.50;99.90;;;;;;5063112;28;20568;-90
2022/07/14 01:14:36;;;;;;;0.70;0.60;;;16.50;99.90;;;;;;5059128;28;20505;-91
2022/07/14 01:17:04;;;;;;;0.53;0.50;;;16.50;99.90;;;;;;5058921;28;20891;-90
2022/07/14 01:19:31;;;;;;;0.70;0.50;;;16.40;99.90;;;;;;5057167;28;20462;-90
2022/07/14 01:22:00;;;;;;;0.53;0.43;;;16.40;99.90;;;;;;5064710;28;20463;-91
2022/07/14 01:24:28;;;;;;;0.60;0.40;;;16.40;99.90;;;;;;5060641;28;20934;-91
2022/07/14 01:26:55;;;;;;;2.30;0.50;;;16.50;99.90;;;;;;5059579;28;20496;-91
2022/07/14 01:29:23;;;;;;;0.50;0.40;;;16.60;99.90;;;;;;5065111;28;20483;-90
2022/07/14 01:31:51;;;;;;;0.50;0.50;;;16.50;99.90;;;;;;5057428;28;21009;-90
2022/07/14 01:34:18;;;;;;;0.50;0.50;;;16.50;99.90;;;;;;5062331;28;20586;-91
2022/07/14 01:36:45;;;;;;;0.80;0.47;;;16.50;99.90;;;;;;5061197;28;20582;-90
2022/07/14 01:39:14;;;;;;;0.57;0.50;;;16.30;99.90;;;;;;5062313;28;21282;-91
2022/07/14 01:41:41;;;;;;;0.50;0.40;;;16.20;99.90;;;;;;5061046;28;20474;-91
2022/07/14 01:44:10;;;;;;;0.63;0.50;;;16.10;99.90;;;;;;5062654;28;20456;-91
2022/07/14 01:46:38;;;;;;;0.40;0.40;;;16.10;99.90;;;;;;5063942;28;20464;-91
2022/07/14 01:49:05;;;;;;;0.40;0.40;;;16.10;99.90;;;;;;5058866;28;20986;-91
2022/07/14 01:51:32;;;;;;;0.50;0.40;;;16.00;99.90;;;;;;5063976;28;20485;-91
2022/07/14 01:53:59;;;;;;;0.60;0.40;;;16.00;99.90;;;;;;5060992;28;20813;-90
2022/07/14 01:56:28;;;;;;;0.50;0.50;;;16.00;99.90;;;;;;5061366;28;20464;-90
2022/07/14 01:58:55;;;;;;;0.50;0.43;;;16.00;99.90;;;;;;5062232;28;20448;-90
2022/07/14 02:01:40;;;;;;;0.57;0.40;;;15.90;99.90;;;;;;5062789;28;20476;-90
2022/07/14 02:04:09;;;;;;;0.60;0.50;;;15.90;99.90;;;;;;5062136;28;20459;-90
2022/07/14 02:06:36;;;;;;;1.63;0.43;;;15.80;99.90;;;;;;5061205;28;20455;-90
2022/07/14 02:09:03;;;;;;;0.50;0.40;;;15.80;99.90;;;;;;5060354;28;20463;-90
2022/07/14 02:14:16;;;;;;;0.50;0.40;;;15.70;99.90;;;;;;5063368;28;20438;-89
2022/07/14 02:16:43;;;;;;;1.47;0.40;;;15.60;99.90;;;;;;5063149;28;20630;-90
2022/07/14 02:19:10;;;;;;;0.50;0.50;;;15.70;99.90;;;;;;5059267;28;20453;-90
2022/07/14 02:21:39;;;;;;;0.60;0.50;;;15.60;99.90;;;;;;5061637;28;21029;-90
2022/07/14 02:24:06;;;;;;;0.50;0.40;;;15.50;99.90;;;;;;5055784;28;20457;-89
2022/07/14 02:26:34;;;;;;;1.00;0.50;;;15.40;99.90;;;;;;5063882;28;20833;-90
2022/07/14 02:29:01;;;;;;;0.53;0.50;;;15.40;99.90;;;;;;5052894;28;20818;-90
2022/07/14 02:31:29;;;;;;;0.57;0.53;;;15.50;99.90;;;;;;5067805;28;20507;-89
2022/07/14 02:33:56;;;;;;;0.60;0.40;;;15.70;99.90;;;;;;5079667;28;20524;-89
2022/07/14 02:36:23;;;;;;;0.50;0.50;;;15.80;99.90;;;;;;5087701;28;20520;-90
2022/07/14 02:38:50;;;;;;;0.50;0.40;;;15.90;99.90;;;;;;5070604;28;20486;-89
2022/07/14 02:41:17;;;;;;;2.83;0.60;;;15.90;99.90;;;;;;5064968;28;20458;-89
2022/07/14 02:43:46;;;;;;;1.43;0.37;;;15.90;99.90;;;;;;5065226;28;20471;-90
2022/07/14 02:46:13;;;;;;;0.60;0.40;;;15.90;99.90;;;;;;5058567;28;20471;-89
2022/07/14 02:48:40;;;;;;;2.07;0.50;;;15.90;99.90;;;;;;5062092;28;20564;-89
2022/07/14 02:51:09;;;;;;;0.67;0.50;;;16.00;99.90;;;;;;5058286;28;20494;-89
2022/07/14 02:53:37;;;;;;;0.50;0.40;;;16.00;99.90;;;;;;5058058;28;20470;-89
2022/07/14 02:56:05;;;;;;;2.83;0.90;;;15.90;99.90;;;;;;5058067;28;20540;-89
2022/07/14 02:58:33;;;;;;;0.50;0.40;;;16.00;99.90;;;;;;5060692;28;20524;-89
2022/07/14 03:01:04;;;;;;;0.50;0.40;;;15.90;99.90;;;;;;5057036;28;20472;-90
2022/07/14 03:03:31;;;;;;;1.20;0.50;;;15.90;99.90;;;;;;5062095;28;20876;-90
2022/07/14 03:05:58;;;;;;;0.50;0.47;;;15.90;99.90;;;;;;5061301;28;20537;-89
2022/07/14 03:08:25;;;;;;;0.40;0.30;;;15.80;99.90;;;;;;5059379;28;20521;-90
2022/07/14 03:10:52;;;;;;;0.50;0.40;;;15.80;99.90;;;;;;5060384;28;21263;-90
2022/07/14 03:13:19;;;;;;;0.80;0.60;;;15.80;99.90;;;;;;5061344;28;20463;-90
2022/07/14 03:15:46;;;;;;;0.50;0.40;;;15.80;99.90;;;;;;5063611;28;20464;-89
2022/07/14 03:18:15;;;;;;;0.60;0.50;;;15.90;99.90;;;;;;5060062;28;20467;-90
2022/07/14 03:20:42;;;;;;;0.40;0.40;;;15.90;99.90;;;;;;5060971;28;20525;-91
2022/07/14 03:23:09;;;;;;;0.50;0.40;;;16.00;99.90;;;;;;5060786;28;20518;-91
2022/07/14 03:25:37;;;;;;;0.50;0.40;;;16.00;99.90;;;;;;5056204;28;20525;-91
2022/07/14 03:28:04;;;;;;;0.50;0.40;;;16.10;99.90;;;;;;5061064;28;20567;-91
2022/07/14 03:30:31;;;;;;;0.50;0.40;;;16.20;99.90;;;;;;5062261;28;20464;-91
2022/07/14 03:32:58;;;;;;;0.50;0.40;;;16.30;99.90;;;;;;5057259;28;20484;-90
2022/07/14 03:35:27;;;;;;;0.50;0.40;;;16.30;99.90;;;;;;5062474;28;20536;-90
2022/07/14 03:37:55;;;;;;;0.40;0.40;;;16.40;99.90;;;;;;5060344;28;20570;-90
2022/07/14 03:40:22;;;;;;;1.53;0.50;;;16.30;99.90;;;;;;5063245;28;20493;-91
2022/07/14 03:42:49;;;;;;;0.67;0.40;;;16.30;99.90;;;;;;5061557;28;21190;-90
2022/07/14 03:45:16;;;;;;;0.50;0.37;;;16.20;99.90;;;;;;5060131;28;20561;-90
2022/07/14 03:47:43;;;;;;;0.50;0.43;;;16.20;99.90;;;;;;5059678;28;21139;-90
2022/07/14 03:50:10;;;;;;;0.50;0.40;;;16.20;99.90;;;;;;5058647;28;21039;-90
2022/07/14 03:52:39;;;;;;;0.50;0.40;;;16.20;99.90;;;;;;5055056;28;20474;-90
2022/07/14 03:55:07;;;;;;;0.50;0.40;;;16.30;99.90;;;;;;5059615;28;20463;-91
2022/07/14 03:57:34;;;;;;;0.93;0.60;;;16.30;99.90;;;;;;5057501;28;20476;-90
2022/07/14 04:00:01;;;;;;;0.40;0.30;;;16.40;99.90;;;;;;5061417;28;20453;-90
2022/07/14 04:02:29;;;;;;;0.50;0.40;;;16.40;99.90;;;;;;5057305;28;20467;-91
2022/07/14 04:04:56;;;;;;;0.50;0.50;;;16.50;99.90;;;;;;5058690;28;20486;-91
2022/07/14 04:07:23;;;;;;;1.30;0.40;;;16.50;99.90;;;;;;5056828;28;20490;-91
2022/07/14 04:09:51;;;;;;;0.50;0.40;;;16.60;99.90;;;;;;5061518;28;20467;-91
2022/07/14 04:12:18;;;;;;;0.40;0.33;;;16.80;99.90;;;;;;5051775;28;21452;-91
2022/07/14 04:14:46;;;;;;;0.60;0.43;;;16.80;99.90;;;;;;5053943;28;20471;-91
2022/07/14 04:17:13;;;;;;;2.17;0.57;;;17.00;99.90;;;;;;5053923;28;20456;-90
2022/07/14 04:19:41;;;;;;;0.80;0.43;;;17.00;99.90;;;;;;5058114;28;20467;-90
2022/07/14 04:22:08;;;;;;;0.60;0.50;;;17.00;99.90;;;;;;5054488;28;20582;-90
2022/07/14 04:24:35;;;;;;;0.40;0.40;;;17.10;99.90;;;;;;5061291;28;20444;-90
2022/07/14 04:27:04;;;;;;;0.80;0.40;;;17.00;99.90;;;;;;5055325;28;20576;-92
2022/07/14 04:29:32;;;;;;;0.50;0.50;;;17.10;99.90;;;;;;5056695;28;20452;-92
2022/07/14 04:31:59;;;;;;;2.60;0.40;;;17.10;99.90;;;;;;5058323;28;20472;-91
2022/07/14 04:34:26;;;;;;;3.90;0.40;;;17.10;99.90;;;;;;5060067;28;20509;-91
2022/07/14 04:36:54;;;;;;;0.50;0.40;;;17.20;99.90;;;;;;5060220;28;20484;-92
2022/07/14 04:39:21;;;;;;;2.73;0.40;;;17.20;99.90;;;;;;5058072;28;20517;-90
2022/07/14 04:41:49;;;;;;;2.33;0.50;;;17.20;99.90;;;;;;5056009;28;20502;-94
2022/07/14 04:44:18;;;;;;;0.40;0.33;;;17.10;99.90;;;;;;5053782;28;20451;-91
2022/07/14 04:46:45;;;;;;;0.50;0.40;;;17.00;99.90;;;;;;5057842;28;20979;-94
2022/07/14 04:52:03;;;;;;;0.60;0.40;;;17.10;99.90;;;;;;5057187;28;20493;-92
2022/07/14 04:54:31;;;;;;;3.33;0.40;;;17.10;99.90;;;;;;5059972;28;20479;-91
2022/07/14 04:56:59;;;;;;;0.50;0.40;;;17.20;99.90;;;;;;5073867;28;20704;-92
2022/07/14 04:59:28;;;;;;;0.40;0.30;;;17.30;99.90;;;;;;5070708;28;21005;-91
2022/07/14 05:01:56;;;;;;;0.50;0.40;;;17.40;99.90;;;;;;5072077;28;20462;-93
2022/07/14 05:04:23;;;;;;;0.40;0.40;;;17.50;99.90;;;;;;5076326;28;20570;-94
2022/07/14 05:06:51;;;;;;;0.50;0.40;;;17.60;99.90;;;;;;5077133;28;20459;-92
2022/07/14 05:09:21;;;;;;;0.60;0.60;;;17.80;99.90;;;;;;5067422;28;20892;-93
2022/07/14 05:11:49;;;;;;;0.50;0.40;;;18.00;99.90;;;;;;5064039;28;20509;-90
2022/07/14 05:14:17;;;;;;;0.60;0.50;;;18.10;99.90;;;;;;5066128;28;21154;-92
2022/07/14 05:16:48;;;;;;;0.50;0.40;;;18.20;99.90;;;;;;5066295;28;20491;-87
2022/07/14 05:19:16;;;;;;;0.50;0.40;;;18.50;99.90;;;;;;5062244;28;20459;-90
2022/07/14 05:21:43;;;;;;;0.80;0.60;;;18.50;99.90;;;;;;5058886;28;20504;-90
2022/07/14 05:24:11;;;;;;;0.50;0.40;;;18.50;99.90;;;;;;5057480;28;20459;-91
2022/07/14 05:26:38;;;;;;;3.13;0.40;;;18.60;99.70;;;;;;5063840;28;20455;-89
2022/07/14 05:29:05;;;;;;;1.37;0.40;;;18.80;98.80;;;;;;5064112;28;20445;-90
2022/07/14 05:31:32;;;;;;;0.50;0.50;;;19.20;96.90;;;;;;5062513;28;20517;-88
2022/07/14 05:34:01;;;;;;;2.70;0.47;;;19.50;97.00;;;;;;5061895;28;20484;-88
2022/07/14 05:36:28;;;;;;;1.00;0.50;;;19.90;96.30;;;;;;5060495;28;20463;-89
2022/07/14 05:38:55;;;;;;;2.30;0.60;;;19.90;96.00;;;;;;5062824;28;20457;-89
2022/07/14 05:41:23;;;;;;;0.70;0.50;;;19.80;96.80;;;;;;5063936;28;20478;-90
2022/07/14 05:43:50;;;;;;;0.60;0.50;;;19.70;97.30;;;;;;5062816;28;20448;-89
2022/07/14 05:46:17;;;;;;;1.40;0.50;;;19.80;97.90;;;;;;5059080;28;21005;-90
2022/07/14 05:48:44;;;;;;;0.83;0.50;;;19.80;98.00;;;;;;5063485;28;20877;-85
2022/07/14 05:51:14;;;;;;;0.83;0.50;;;19.90;97.60;;;;;;5064599;28;20465;-90
2022/07/14 05:53:43;;;;;;;0.60;0.40;;;20.10;97.40;;;;;;5059866;28;20509;-90
2022/07/14 05:56:11;;;;;;;0.40;0.40;;;20.00;96.20;;;;;;5054963;28;20458;-88
2022/07/14 05:58:39;;;;;;;0.90;0.53;;;20.20;96.60;;;;;;5056830;28;20465;-92
2022/07/14 06:01:08;;;;;;;1.00;0.50;;;20.40;97.20;;;;;;5059478;28;20459;-91
2022/07/14 06:03:36;;;;;;;0.93;0.73;;;21.00;97.30;;;;;;5065612;28;20472;-90
2022/07/14 06:06:05;;;;;;;0.50;0.40;;;20.80;95.80;;;;;;5055114;28;20502;-90
2022/07/14 06:08:35;;;;;;;1.13;0.70;;;20.60;95.90;;;;;;5054267;28;20462;-92
2022/07/14 06:11:03;;;;;;;0.53;0.43;;;20.60;96.10;;;;;;5055914;28;20462;-90
2022/07/14 06:13:31;;;;;;;7.13;0.70;;;20.30;96.20;;;;;;5058201;28;21190;-91
2022/07/14 06:15:59;;;;;;;1.27;0.50;;;20.20;96.70;;;;;;5056703;28;21244;-91
2022/07/14 06:18:26;;;;;;;3.60;0.60;;;20.30;96.50;;;;;;5061396;28;20452;-91
2022/07/14 06:20:53;;;;;;;0.60;0.40;;;20.70;96.40;;;;;;5058133;28;20460;-91
2022/07/14 06:23:21;;;;;;;1.27;0.60;;;21.00;95.80;;;;;;5063148;28;20477;-92
2022/07/14 06:25:49;;;;;;;1.37;0.63;;;21.30;95.50;;;;;;5055692;28;20463;-90
2022/07/14 06:28:17;;;;;;;0.80;0.60;;;21.70;94.40;;;;;;5055894;28;20518;-91
2022/07/14 06:30:44;;;;;;;0.93;0.50;;;21.90;93.90;;;;;;5060288;28;20462;-91
2022/07/14 06:33:11;;;;;;;2.97;0.43;;;22.00;93.40;;;;;;5064800;28;20494;-91
2022/07/14 06:35:39;;;;;;;0.80;0.63;;;22.20;93.10;;;;;;5056715;28;21009;-92
2022/07/14 06:38:07;;;;;;;1.07;0.60;;;22.40;92.80;;;;;;5054952;28;20499;-91
2022/07/14 06:40:34;;;;;;;2.07;0.60;;;22.70;93.00;;;;;;5056458;28;20535;-92
2022/07/14 06:43:03;;;;;;;0.67;0.50;;;22.90;92.50;;;;;;5057902;28;20464;-91
2022/07/14 06:45:30;;;;;;;0.70;0.60;;;23.20;92.20;;;;;;5056070;28;20514;-92
2022/07/14 06:47:57;;;;;;;0.60;0.57;;;23.60;90.60;;;;;;5056531;28;20500;-92
2022/07/14 06:50:24;;;;;;;0.47;0.40;;;23.90;90.50;;;;;;5060775;28;20452;-91
2022/07/14 06:52:52;;;;;;;0.50;0.40;;;24.20;88.30;;;;;;5061814;28;20836;-93
2022/07/14 06:55:19;;;;;;;0.50;0.43;;;24.40;83.60;;;;;;5059902;28;20535;-92
2022/07/14 06:57:47;;;;;;;0.60;0.50;;;24.70;83.60;;;;;;5058402;28;21189;-92
2022/07/14 07:00:16;;;;;;;0.60;0.50;;;25.10;80.70;;;;;;5057202;28;20459;-90
2022/07/14 07:02:44;;;;;;;2.60;0.50;;;24.80;80.00;;;;;;5060510;28;20470;-93
2022/07/14 07:08:00;;;;;;;0.50;0.50;;;24.80;80.20;;;;;;5058855;28;20522;-92
2022/07/14 07:10:29;;;;;;;0.77;0.50;;;25.00;78.90;;;;;;5060895;28;20452;-92
2022/07/14 07:12:57;;;;;;;0.80;0.50;;;25.20;79.20;;;;;;5055188;28;20476;-92
2022/07/14 07:15:26;;;;;;;0.50;0.50;;;25.00;78.40;;;;;;5057423;28;20480;-92
2022/07/14 07:17:54;;;;;;;1.90;0.60;;;25.10;81.80;;;;;;5047715;28;20537;-92
2022/07/14 07:20:21;;;;;;;0.50;0.40;;;25.20;82.30;;;;;;5059661;28;20462;-92
2022/07/14 07:22:49;;;;;;;0.50;0.50;;;25.20;80.80;;;;;;5057752;28;21086;-92
2022/07/14 07:25:17;;;;;;;0.60;0.50;;;25.50;82.50;;;;;;5060362;28;20475;-91
2022/07/14 07:27:45;;;;;;;0.50;0.50;;;25.20;83.20;;;;;;5060015;28;20464;-92
2022/07/14 07:30:13;;;;;;;0.50;0.50;;;25.40;81.60;;;;;;5051004;28;20467;-91
2022/07/14 07:32:42;;;;;;;1.37;0.50;;;25.20;82.10;;;;;;5062790;28;20681;-92
2022/07/14 07:35:10;;;;;;;0.60;0.50;;;25.10;81.00;;;;;;5054009;28;20480;-88
2022/07/14 07:37:37;;;;;;;0.50;0.50;;;25.10;83.10;;;;;;5055433;28;20470;-84
2022/07/14 07:40:05;;;;;;;0.50;0.50;;;25.40;83.60;;;;;;5057706;28;20428;-89
2022/07/14 07:42:32;;;;;;;0.50;0.40;;;25.90;82.50;;;;;;5055448;28;20471;-88
2022/07/14 07:45:00;;;;;;;0.57;0.50;;;26.30;81.80;;;;;;5057573;28;21040;-88
2022/07/14 07:47:28;;;;;;;0.50;0.50;;;26.90;79.00;;;;;;5060168;28;20460;-89
2022/07/14 07:49:56;;;;;;;0.50;0.40;;;26.60;72.10;;;;;;5056711;28;20497;-87
2022/07/14 07:52:23;;;;;;;1.00;0.57;;;26.60;74.10;;;;;;5052362;28;20481;-88
2022/07/14 07:55:01;;;;;;;0.70;0.40;;;26.20;69.50;;;;;;5066778;28;20460;-91
2022/07/14 07:57:28;;;;;;;1.57;0.40;;;25.80;71.60;;;;;;5075269;28;20449;-92
2022/07/14 07:59:55;;;;;;;2.60;0.60;;;25.80;73.30;;;;;;5076367;28;20457;-92
2022/07/14 08:02:24;;;;;;;0.53;0.50;;;26.20;73.80;;;;;;5060092;28;20602;-91
2022/07/14 08:04:52;;;;;;;1.33;0.50;;;26.20;73.30;;;;;;5067248;28;20455;-92
2022/07/14 08:07:22;;;;;;;0.70;0.70;;;26.00;68.50;;;;;;5066090;28;20452;-90
2022/07/14 08:09:49;;;;;;;0.80;0.50;;;26.10;71.60;;;;;;5063630;28;21149;-92
2022/07/14 08:12:16;;;;;;;0.53;0.50;;;26.20;75.10;;;;;;5057210;28;20885;-91
2022/07/14 08:14:50;;;;;;;0.70;0.40;;;26.30;75.00;;;;;;5058337;28;20489;-91
2022/07/14 08:17:18;;;;;;;0.50;0.40;;;26.40;70.50;;;;;;5018913;28;21305;-89
2022/07/14 08:19:45;;;;;;;0.67;0.50;;;26.80;71.10;;;;;;5018910;28;21012;-91
2022/07/14 08:22:13;;;;;;;0.50;0.43;;;26.80;70.20;;;;;;5015784;28;21153;-91
2022/07/14 08:24:42;;;;;;;0.60;0.60;;;27.10;67.90;;;;;;5012704;28;20470;-92
2022/07/14 08:27:09;;;;;;;0.93;0.90;;;26.80;66.80;;;;;;5018344;28;20674;-89
2022/07/14 08:29:36;;;;;;;2.90;0.50;;;27.10;68.60;;;;;;5018627;28;20960;-90
2022/07/14 08:32:03;;;;;;;0.50;0.40;;;27.00;65.30;;;;;;5019267;28;20469;-89
2022/07/14 08:34:30;;;;;;;0.50;0.50;;;27.20;68.00;;;;;;5023161;28;20490;-91
2022/07/14 08:36:58;;;;;;;0.60;0.50;;;27.50;68.40;;;;;;5026874;28;21153;-89
2022/07/14 08:39:26;;;;;;;0.60;0.50;;;27.60;62.80;;;;;;5015619;28;21006;-92
2022/07/14 08:41:55;;;;;;;1.40;0.50;;;27.50;62.30;;;;;;5010950;28;20687;-90
2022/07/14 08:44:25;;;;;;;0.47;0.40;;;27.60;61.60;;;;;;5017566;28;20536;-89
2022/07/14 08:46:52;;;;;;;0.60;0.50;;;27.90;64.60;;;;;;5015108;28;20467;-89
2022/07/14 08:49:20;;;;;;;0.60;0.60;;;28.20;62.50;;;;;;5015967;28;20520;-87
2022/07/14 08:51:47;;;;;;;0.60;0.60;;;28.30;62.00;;;;;;5018007;28;20468;-92
2022/07/14 08:54:14;;;;;;;0.70;0.70;;;28.50;59.80;;;;;;5013543;28;20849;-91
2022/07/14 08:56:41;;;;;;;0.80;0.60;;;28.20;61.40;;;;;;5013872;28;20466;-91
2022/07/14 08:59:10;;;;;;;0.50;0.50;;;27.90;60.90;;;;;;5021545;28;20454;-90
2022/07/14 09:01:37;;;;;;;0.73;0.73;;;27.90;63.50;;;;;;5014393;28;20465;-92
2022/07/14 09:04:05;;;;;;;0.50;0.50;;;28.00;58.90;;;;;;5012272;28;20821;-94
2022/07/14 09:06:51;;;;;;;0.70;0.60;;;28.20;57.70;;;;;;5017342;28;20533;-95
2022/07/14 09:09:21;;;;;;;2.13;0.70;;;28.50;59.30;;;;;;5021177;28;20531;-94
2022/07/14 09:11:53;;;;;;;2.00;0.50;;;28.20;56.10;;;;;;5020221;28;20467;-94
2022/07/14 09:14:23;;;;;;;0.50;0.50;;;28.30;58.40;;;;;;5019883;28;21207;-93
2022/07/14 09:16:52;;;;;;;0.80;0.80;;;28.50;58.50;;;;;;5051093;28;20484;-94
2022/07/14 09:19:20;;;;;;;0.60;0.50;;;28.60;58.10;;;;;;5060268;28;20636;-95
2022/07/14 09:21:58;;;;;;;1.83;1.73;;;28.70;56.70;;;;;;5060873;28;20463;-94
2022/07/14 09:24:26;;;;;;;0.60;0.40;;;28.80;57.40;;;;;;5058999;28;20472;-94
2022/07/14 09:26:56;;;;;;;0.50;0.50;;;28.80;60.00;;;;;;5062843;28;20533;-95
2022/07/14 09:29:29;;;;;;;0.60;0.43;;;28.80;61.40;;;;;;5062336;28;20486;-94
2022/07/14 09:31:56;;;;;;;0.60;0.50;;;28.90;59.50;;;;;;5058134;28;20761;-94
2022/07/14 09:34:29;;;;;;;0.80;0.60;;;29.20;59.30;;;;;;5059160;28;20933;-96
2022/07/14 09:37:14;;;;;;;7.30;1.37;;;29.40;56.90;;;;;;5059968;28;20942;-93
2022/07/14 09:40:03;;;;;;;1.03;0.40;;;29.40;55.00;;;;;;5060598;28;20456;-93
2022/07/14 09:42:50;;;;;;;0.50;0.40;;;29.50;52.90;;;;;;5051940;28;20981;-94
2022/07/14 09:45:20;;;;;;;1.10;0.40;;;29.50;53.20;;;;;;5056131;28;20467;-89
2022/07/14 09:48:07;;;;;;;0.70;0.60;;;29.60;51.90;;;;;;5066653;28;21588;-95
2022/07/14 09:50:54;;;;;;;0.50;0.50;;;29.60;51.40;;;;;;5062762;28;20864;-96
2022/07/14 09:53:26;;;;;;;0.60;0.40;;;29.70;52.10;;;;;;5067999;28;20558;-95
2022/07/14 09:55:59;;;;;;;0.60;0.40;;;29.50;54.30;;;;;;5064788;28;20455;-95
2022/07/14 09:58:29;;;;;;;0.50;0.50;;;29.10;52.40;;;;;;5059016;28;20852;-95
2022/07/14 10:01:01;;;;;;;0.50;0.50;;;29.10;51.30;;;;;;5061288;28;20451;-94
2022/07/14 10:03:30;;;;;;;1.17;0.50;;;29.30;52.10;;;;;;5062772;28;20965;-94
2022/07/14 10:06:00;;;;;;;0.70;0.30;;;29.50;51.30;;;;;;5062411;28;20512;-96
2022/07/14 10:08:29;;;;;;;0.50;0.40;;;29.80;50.10;;;;;;5063693;28;20656;-94
2022/07/14 10:11:00;;;;;;;0.50;0.40;;;29.70;49.80;;;;;;5059584;28;20546;-95
2022/07/14 10:13:28;;;;;;;0.50;0.40;;;30.00;52.50;;;;;;5059664;28;20480;-96
2022/07/14 10:15:58;;;;;;;0.90;0.70;;;29.90;49.40;;;;;;5055195;28;20501;-95
2022/07/14 10:18:27;;;;;;;0.50;0.40;;;29.90;51.60;;;;;;5054067;28;21151;-95
2022/07/14 10:20:56;;;;;;;0.73;0.50;;;30.10;51.30;;;;;;5060719;28;20452;-96
2022/07/14 10:23:25;;;;;;;0.43;0.30;;;30.30;49.90;;;;;;5061898;28;20460;-95
2022/07/14 10:25:54;;;;;;;0.50;0.40;;;30.20;50.70;;;;;;5060365;28;20849;-95
2022/07/14 10:28:23;;;;;;;0.50;0.47;;;30.40;51.10;;;;;;5059524;28;20468;-95
2022/07/14 10:31:06;;;;;;;0.50;0.50;;;30.10;49.60;;;;;;5056214;28;20492;-96
2022/07/14 10:33:46;;;;;;;4.10;0.50;;;29.80;50.20;;;;;;5060711;28;20476;-95
2022/07/14 10:36:20;;;;;;;0.60;0.50;;;29.90;50.90;;;;;;5055974;28;20546;-95
2022/07/14 10:39:03;;;;;;;0.50;0.40;;;30.00;48.50;;;;;;5055068;28;20452;-95
2022/07/14 10:42:02;;;;;;;0.50;0.43;;;30.20;49.70;;;;;;5057405;28;22146;-96
2022/07/14 10:44:32;;;;;;;0.50;0.40;;;30.40;46.90;;;;;;5015077;28;20458;-96
2022/07/14 10:47:12;;;;;;;0.50;0.50;;;30.40;46.80;;;;;;5067722;28;20484;-95
2022/07/14 10:50:02;;;;;;;0.50;0.47;;;30.50;47.80;;;;;;5072984;28;20881;-95
2022/07/14 10:52:32;;;;;;;0.50;0.40;;;30.60;47.20;;;;;;5084860;28;20445;-96
2022/07/14 10:55:16;;;;;;;0.60;0.47;;;30.90;45.50;;;;;;5075497;28;20753;-95
2022/07/14 10:58:21;;;;;;;1.90;0.40;;;31.00;52.90;;;;;;5062336;28;20475;-95
2022/07/14 11:00:57;;;;;;;0.50;0.40;;;30.90;46.10;;;;;;5066783;28;20890;-96
2022/07/14 11:03:47;;;;;;;0.63;0.43;;;31.00;47.90;;;;;;5059865;28;20579;-94
2022/07/14 11:06:19;;;;;;;0.90;0.50;;;31.00;43.00;;;;;;5065111;28;20810;-93
2022/07/14 11:09:42;;;;;;;1.17;0.40;;;30.90;44.80;;;;;;5057568;28;20463;-92
2022/07/14 11:12:12;;;;;;;1.60;0.50;;;31.30;44.90;;;;;;5054277;28;21048;-93
2022/07/14 11:14:42;;;;;;;0.50;0.50;;;31.20;43.00;;;;;;5052587;28;20566;-93
2022/07/14 11:17:30;;;;;;;0.50;0.40;;;31.00;42.40;;;;;;5049773;28;20483;-94
2022/07/14 11:19:59;;;;;;;1.47;0.77;;;31.20;41.60;;;;;;5055655;28;20468;-92
2022/07/14 11:22:26;;;;;;;0.90;0.43;;;31.20;42.60;;;;;;5052634;28;20802;-93
2022/07/14 11:24:57;;;;;;;0.43;0.40;;;31.30;45.40;;;;;;5055953;28;20499;-93
2022/07/14 11:27:47;;;;;;;0.70;0.50;;;31.30;42.90;;;;;;5061559;28;20559;-93
2022/07/14 11:30:23;;;;;;;0.50;0.40;;;31.20;42.70;;;;;;5063225;28;20463;-92
2022/07/14 11:33:07;;;;;;;0.50;0.47;;;31.40;43.70;;;;;;5058271;28;20459;-93
2022/07/14 11:38:35;;;;;;;0.40;0.37;;;31.50;45.20;;;;;;5059910;28;20454;-92
2022/07/14 11:41:05;;;;;;;0.43;0.40;;;31.50;45.40;;;;;;5057949;28;20539;-93
2022/07/14 11:43:56;;;;;;;0.50;0.40;;;31.60;42.00;;;;;;5060241;28;21015;-93
2022/07/14 11:46:24;;;;;;;0.50;0.40;;;31.60;45.60;;;;;;5058903;28;20516;-92
2022/07/14 11:48:53;;;;;;;0.50;0.40;;;31.70;42.50;;;;;;5061240;28;20467;-93
2022/07/14 11:51:25;;;;;;;0.80;0.63;;;31.70;45.70;;;;;;5057597;28;20955;-94
2022/07/14 11:53:59;;;;;;;1.23;0.40;;;31.80;43.20;;;;;;5059662;28;20498;-94
2022/07/14 11:56:27;;;;;;;0.50;0.47;;;32.10;42.90;;;;;;5055930;28;20540;-93
2022/07/14 11:58:57;;;;;;;0.70;0.47;;;32.10;42.40;;;;;;5046682;28;20486;-92
2022/07/14 12:01:30;;;;;;;0.60;0.40;;;31.90;42.70;;;;;;5050609;28;21270;-92
2022/07/14 12:04:06;;;;;;;0.43;0.40;;;31.70;40.80;;;;;;5059528;28;20458;-91
2022/07/14 12:06:37;;;;;;;0.50;0.50;;;31.90;42.20;;;;;;5057298;28;20470;-91
2022/07/14 12:09:04;;;;;;;0.53;0.50;;;31.90;38.80;;;;;;5054614;28;21048;-90
2022/07/14 12:11:31;;;;;;;1.63;0.67;;;31.90;42.00;;;;;;5053769;28;20981;-90
2022/07/14 12:14:00;;;;;;;0.70;0.50;;;31.80;39.10;;;;;;5058710;28;20574;-90
2022/07/14 12:16:27;;;;;;;0.60;0.50;;;32.10;38.40;;;;;;5061159;28;20494;-92
2022/07/14 12:18:56;;;;;;;1.40;0.40;;;32.00;39.30;;;;;;5056388;28;20509;-88
2022/07/14 12:21:35;;;;;;;0.50;0.40;;;32.10;42.20;;;;;;5061153;28;20463;-90
2022/07/14 12:24:05;;;;;;;0.50;0.50;;;31.90;40.30;;;;;;5055676;28;20931;-94
2022/07/14 12:26:35;;;;;;;0.50;0.40;;;31.90;40.60;;;;;;5056993;28;20444;-90
2022/07/14 12:29:06;;;;;;;0.60;0.50;;;31.80;40.60;;;;;;5055227;28;20477;-92
2022/07/14 12:31:40;;;;;;;0.60;0.50;;;31.50;44.50;;;;;;5052089;28;20480;-86
2022/07/14 12:34:08;;;;;;;0.50;0.40;;;31.50;39.20;;;;;;5053142;28;21234;-90
2022/07/14 12:36:37;;;;;;;0.50;0.43;;;31.50;40.70;;;;;;5048493;28;20482;-89
2022/07/14 12:39:09;;;;;;;0.50;0.40;;;31.80;41.00;;;;;;5046616;28;20475;-90
2022/07/14 12:41:38;;;;;;;0.50;0.40;;;31.90;41.00;;;;;;5046411;28;20517;-89
2022/07/14 12:44:08;;;;;;;0.50;0.40;;;31.70;40.30;;;;;;5050373;28;21014;-86
2022/07/14 12:46:35;;;;;;;0.50;0.40;;;31.60;42.40;;;;;;5052027;28;20461;-88
2022/07/14 12:49:05;;;;;;;0.60;0.40;;;31.70;41.00;;;;;;5048828;28;20471;-88
2022/07/14 12:51:39;;;;;;;0.60;0.50;;;31.60;42.00;;;;;;5053889;28;20517;-89
2022/07/14 12:54:09;;;;;;;0.80;0.47;;;32.00;40.80;;;;;;5048852;28;21051;-89
2022/07/14 12:56:39;;;;;;;1.83;0.70;;;32.10;41.40;;;;;;5046827;28;20469;-88
2022/07/14 12:59:10;;;;;;;0.70;0.40;;;32.40;42.00;;;;;;5051782;28;20467;-88
2022/07/14 13:01:46;;;;;;;0.50;0.40;;;32.30;40.80;;;;;;5051448;28;20503;-88
2022/07/14 13:04:17;;;;;;;0.50;0.50;;;32.30;37.90;;;;;;5048498;28;20814;-89
2022/07/14 13:06:47;;;;;;;0.50;0.40;;;32.20;41.10;;;;;;5051948;28;20456;-88
2022/07/14 13:09:16;;;;;;;1.43;0.70;;;32.30;37.30;;;;;;5046421;28;20559;-89
2022/07/14 13:11:44;;;;;;;1.90;0.60;;;32.50;39.10;;;;;;5045344;28;20464;-88